Time;durP1;ratioP1;P1;durP2;ratioP2;P2;SDS_P1;SDS_P2;PMS_P1;PMS_P2;Temp;Humidity;BMP_temperature;BMP_pressure;BME280_temperature;BME280_humidity;BME280_pressure;Samples;Min_cycle;Max_cycle;Signal;HPM_P1;HPM_P2
2023/05/26 00:01:08;;;;;;;0.75;0.45;;;6.60;99.90;;;;;;5092286;28;20039;-64
2023/05/26 00:03:34;;;;;;;0.68;0.30;;;6.60;99.90;;;;;;5092582;28;20369;-64
2023/05/26 00:06:01;;;;;;;3.95;0.70;;;6.50;99.90;;;;;;5076025;28;20145;-64
2023/05/26 00:08:26;;;;;;;1.48;0.90;;;6.50;99.90;;;;;;5091977;28;20118;-64
2023/05/26 00:10:52;;;;;;;2.55;0.60;;;6.50;99.90;;;;;;5092307;28;20123;-64
2023/05/26 00:13:18;;;;;;;1.00;0.82;;;6.50;99.90;;;;;;5092221;28;20071;-65
2023/05/26 00:15:44;;;;;;;3.20;0.55;;;6.50;99.90;;;;;;5110222;28;20040;-64
2023/05/26 00:18:10;;;;;;;4.25;0.45;;;6.40;99.90;;;;;;5092371;28;20050;-64
2023/05/26 00:20:35;;;;;;;2.15;0.93;;;6.40;99.90;;;;;;5109736;28;20123;-64
2023/05/26 00:23:01;;;;;;;1.52;0.52;;;6.40;99.90;;;;;;5110214;28;20040;-64
2023/05/26 00:25:27;;;;;;;0.20;0.20;;;6.30;99.90;;;;;;5092220;28;20093;-65
2023/05/26 00:27:53;;;;;;;2.70;0.57;;;6.30;99.90;;;;;;5110073;28;20047;-64
2023/05/26 00:30:19;;;;;;;4.07;0.98;;;6.30;99.90;;;;;;5092507;28;20035;-64
2023/05/26 00:32:45;;;;;;;2.33;0.63;;;6.30;99.90;;;;;;5092059;28;20092;-64
2023/05/26 00:35:10;;;;;;;7.63;1.33;;;6.20;99.90;;;;;;5091461;28;20043;-64
2023/05/26 00:37:36;;;;;;;6.75;1.25;;;6.20;99.90;;;;;;5092156;28;20044;-64
2023/05/26 00:40:02;;;;;;;2.33;0.88;;;6.10;99.90;;;;;;5092170;28;20035;-64
2023/05/26 00:42:28;;;;;;;8.15;1.42;;;6.10;99.90;;;;;;5109453;28;20499;-64
2023/05/26 00:44:54;;;;;;;2.83;0.70;;;6.10;99.90;;;;;;5110022;28;20043;-64
2023/05/26 00:47:19;;;;;;;1.77;0.70;;;6.10;99.90;;;;;;5075289;28;20035;-64
2023/05/26 00:49:45;;;;;;;4.15;0.82;;;6.10;99.90;;;;;;5091049;28;20051;-64
2023/05/26 00:52:12;;;;;;;1.73;1.02;;;6.10;99.90;;;;;;5091876;28;20032;-64
2023/05/26 00:54:42;;;;;;;1.42;0.98;;;6.10;99.90;;;;;;5091882;28;20044;-65
2023/05/26 00:57:08;;;;;;;6.18;1.10;;;6.00;99.90;;;;;;5109245;28;20507;-64
2023/05/26 00:59:34;;;;;;;3.80;0.63;;;6.00;99.90;;;;;;5075264;28;20070;-64
2023/05/26 01:02:00;;;;;;;2.72;0.82;;;6.00;99.90;;;;;;5092326;28;20105;-64
2023/05/26 01:04:27;;;;;;;4.15;1.55;;;5.90;99.90;;;;;;5109502;28;20032;-64
2023/05/26 01:06:55;;;;;;;4.88;0.60;;;5.90;99.90;;;;;;5092181;28;20040;-64
2023/05/26 01:09:21;;;;;;;3.30;0.82;;;5.90;99.90;;;;;;5079091;28;20046;-64
2023/05/26 01:12:07;;;;;;;1.38;0.98;;;5.90;99.90;;;;;;5095469;28;20043;-64
2023/05/26 01:14:44;;;;;;;0.73;0.50;;;5.80;99.90;;;;;;5095755;28;20040;-64
2023/05/26 01:17:25;;;;;;;0.98;0.75;;;5.80;99.90;;;;;;5095394;28;20404;-64
2023/05/26 01:20:13;;;;;;;4.38;0.88;;;5.80;99.90;;;;;;5095917;28;20047;-64
2023/05/26 01:22:41;;;;;;;2.00;0.50;;;5.70;99.90;;;;;;5095501;28;20579;-64
2023/05/26 01:25:37;;;;;;;10.00;0.93;;;5.70;99.90;;;;;;5113066;28;20032;-64
2023/05/26 01:28:06;;;;;;;4.57;0.93;;;5.70;99.90;;;;;;5114083;28;20042;-64
2023/05/26 01:30:34;;;;;;;0.20;0.20;;;5.70;99.90;;;;;;5095499;28;20487;-63
2023/05/26 01:33:00;;;;;;;1.08;0.55;;;5.60;99.90;;;;;;5095695;28;20092;-64
2023/05/26 01:35:26;;;;;;;3.75;1.08;;;5.60;99.90;;;;;;5095353;28;20445;-64
2023/05/26 01:37:53;;;;;;;1.40;0.57;;;5.60;99.90;;;;;;5094603;28;20047;-64
2023/05/26 01:40:19;;;;;;;1.35;0.73;;;5.60;99.90;;;;;;5095110;28;20084;-64
2023/05/26 01:42:55;;;;;;;2.22;0.85;;;5.60;99.90;;;;;;5095495;28;20044;-64
2023/05/26 01:45:24;;;;;;;0.82;0.52;;;5.60;99.90;;;;;;5113350;28;20428;-64
2023/05/26 01:47:54;;;;;;;0.85;0.57;;;5.60;99.90;;;;;;5095103;28;20040;-64
2023/05/26 01:50:33;;;;;;;;;;;5.60;99.90;;;;;;5113745;28;20108;-64
2023/05/26 01:53:05;;;;;;;0.43;0.20;;;5.60;99.90;;;;;;5094782;28;19958;-64
2023/05/26 01:55:31;;;;;;;1.92;0.90;;;5.50;99.90;;;;;;5113426;28;20040;-64
2023/05/26 01:57:58;;;;;;;2.78;1.02;;;5.50;99.90;;;;;;5094905;28;20553;-64
2023/05/26 02:00:27;;;;;;;1.80;0.80;;;5.50;99.90;;;;;;5094401;28;20075;-64
2023/05/26 02:02:53;;;;;;;1.33;0.80;;;5.50;99.90;;;;;;5095104;28;20035;-64
2023/05/26 02:05:18;;;;;;;1.30;0.80;;;5.50;99.90;;;;;;5094986;28;20556;-64
2023/05/26 02:07:46;;;;;;;3.83;0.63;;;5.50;99.90;;;;;;5112389;28;20556;-63
2023/05/26 02:10:12;;;;;;;2.67;0.95;;;5.50;99.90;;;;;;5094661;28;20040;-64
2023/05/26 02:12:38;;;;;;;0.85;0.60;;;5.40;99.90;;;;;;5077096;28;20043;-63
2023/05/26 02:15:04;;;;;;;2.35;1.13;;;5.40;99.90;;;;;;5113335;28;20066;-64
2023/05/26 02:17:30;;;;;;;2.20;0.70;;;5.40;99.90;;;;;;5077804;28;20039;-64
2023/05/26 02:19:57;;;;;;;1.13;0.65;;;5.40;99.90;;;;;;5111897;28;20044;-64
2023/05/26 02:22:23;;;;;;;4.47;1.23;;;5.30;99.90;;;;;;5094335;28;20095;-64
2023/05/26 02:24:49;;;;;;;1.58;0.90;;;5.30;99.90;;;;;;5094259;28;20035;-64
2023/05/26 02:27:15;;;;;;;0.52;0.30;;;5.30;99.90;;;;;;5112061;28;20047;-64
2023/05/26 02:29:41;;;;;;;1.00;0.57;;;5.30;99.90;;;;;;5112690;28;20145;-63
2023/05/26 02:32:07;;;;;;;2.65;0.63;;;5.30;99.90;;;;;;5094035;28;20122;-64
2023/05/26 02:34:32;;;;;;;0.70;0.52;;;5.20;99.90;;;;;;5093616;28;20177;-64
2023/05/26 02:36:58;;;;;;;6.22;0.75;;;5.20;99.90;;;;;;5094246;28;20176;-64
2023/05/26 02:39:24;;;;;;;4.25;1.08;;;5.20;99.90;;;;;;5094195;28;20138;-64
2023/05/26 02:41:51;;;;;;;1.15;0.60;;;5.20;99.90;;;;;;5093239;28;20058;-63
2023/05/26 02:44:17;;;;;;;10.95;1.27;;;5.20;99.90;;;;;;5093972;28;20621;-64
2023/05/26 02:46:42;;;;;;;0.93;0.40;;;5.20;99.90;;;;;;5094177;28;20123;-64
2023/05/26 02:49:08;;;;;;;1.52;0.95;;;5.20;99.90;;;;;;5093283;28;20126;-63
2023/05/26 02:51:35;;;;;;;1.85;1.00;;;5.20;99.90;;;;;;5111805;28;20126;-64
2023/05/26 02:54:01;;;;;;;1.65;1.15;;;5.20;99.90;;;;;;5112002;28;20035;-64
2023/05/26 02:56:27;;;;;;;1.20;0.55;;;5.10;99.90;;;;;;5093351;28;20054;-64
2023/05/26 02:58:52;;;;;;;1.20;0.50;;;5.20;99.90;;;;;;5112115;28;20106;-63
2023/05/26 03:01:18;;;;;;;6.05;1.20;;;5.10;99.90;;;;;;5112039;28;20479;-64
2023/05/26 03:03:44;;;;;;;0.93;0.63;;;5.10;99.90;;;;;;5111489;28;20503;-63
2023/05/26 03:06:10;;;;;;;0.75;0.75;;;5.10;99.90;;;;;;5112218;28;20035;-64
2023/05/26 03:08:37;;;;;;;3.88;1.25;;;5.10;99.90;;;;;;5092853;28;20118;-64
2023/05/26 03:11:04;;;;;;;3.45;1.23;;;5.00;99.90;;;;;;5111550;28;20040;-64
2023/05/26 03:13:30;;;;;;;2.65;1.20;;;5.00;99.90;;;;;;5111659;28;20484;-64
2023/05/26 03:15:56;;;;;;;1.95;1.05;;;5.00;99.90;;;;;;5111033;28;20065;-64
2023/05/26 03:18:21;;;;;;;1.85;0.70;;;5.00;99.90;;;;;;5093520;28;20042;-64
2023/05/26 03:20:48;;;;;;;1.35;0.63;;;5.00;99.90;;;;;;5093194;28;20494;-64
2023/05/26 03:23:18;;;;;;;2.10;1.08;;;5.00;99.90;;;;;;5092547;28;20050;-64
2023/05/26 03:25:44;;;;;;;;;;;4.90;99.90;;;;;;5076592;28;20126;-64
2023/05/26 03:28:10;;;;;;;1.10;0.73;;;5.00;99.90;;;;;;5111494;28;20048;-64
2023/05/26 03:30:35;;;;;;;0.47;0.43;;;5.00;99.90;;;;;;5110161;28;20040;-64
2023/05/26 03:33:01;;;;;;;1.25;1.00;;;5.00;99.90;;;;;;5093418;28;20168;-64
2023/05/26 03:35:27;;;;;;;0.60;0.30;;;5.00;99.90;;;;;;5093100;28;20096;-64
2023/05/26 03:37:53;;;;;;;1.23;0.75;;;5.00;99.90;;;;;;5092321;28;20042;-64
2023/05/26 03:40:19;;;;;;;2.20;1.25;;;5.00;99.90;;;;;;5092743;28;20086;-64
2023/05/26 03:42:44;;;;;;;1.20;0.70;;;5.00;99.90;;;;;;5092882;28;20055;-64
2023/05/26 03:45:12;;;;;;;4.68;1.05;;;5.00;99.90;;;;;;5110756;28;20110;-64
2023/05/26 03:47:38;;;;;;;4.03;0.80;;;5.00;99.90;;;;;;5111243;28;20422;-64
2023/05/26 03:50:05;;;;;;;0.60;0.52;;;5.10;99.90;;;;;;5092455;28;20067;-64
2023/05/26 03:52:32;;;;;;;0.45;0.30;;;5.00;99.90;;;;;;5075088;28;20468;-63
2023/05/26 03:54:57;;;;;;;8.00;0.65;;;5.00;99.90;;;;;;5110948;28;20063;-64
2023/05/26 03:57:23;;;;;;;0.43;0.43;;;5.10;99.90;;;;;;5092457;28;20078;-64
2023/05/26 03:59:49;;;;;;;1.38;1.23;;;5.00;99.90;;;;;;5091895;28;20093;-64
2023/05/26 04:02:16;;;;;;;2.58;0.95;;;5.10;99.90;;;;;;5110933;28;20096;-64
2023/05/26 04:04:41;;;;;;;1.33;0.70;;;5.10;99.90;;;;;;5092085;28;20404;-64
2023/05/26 04:07:07;;;;;;;1.98;0.93;;;5.10;99.90;;;;;;5075464;28;20039;-64
2023/05/26 04:09:33;;;;;;;4.78;0.98;;;5.10;99.90;;;;;;5092326;28;20122;-64
2023/05/26 04:12:00;;;;;;;3.03;0.73;;;5.10;99.90;;;;;;5110361;28;20037;-64
2023/05/26 04:14:26;;;;;;;5.38;0.77;;;5.10;99.90;;;;;;5110766;28;20047;-64
2023/05/26 04:16:52;;;;;;;2.33;1.17;;;5.20;99.90;;;;;;5092613;28;20091;-64
2023/05/26 04:19:18;;;;;;;3.53;0.98;;;5.20;99.90;;;;;;5074999;28;20078;-64
2023/05/26 04:21:44;;;;;;;1.50;0.82;;;5.30;99.90;;;;;;5110633;28;20085;-64
2023/05/26 04:24:10;;;;;;;1.48;0.82;;;5.30;99.90;;;;;;5088270;28;20044;-64
2023/05/26 04:26:37;;;;;;;1.33;0.82;;;5.40;99.90;;;;;;5071056;28;20048;-64
2023/05/26 04:29:03;;;;;;;1.08;0.57;;;5.50;99.90;;;;;;5089585;28;20480;-64
2023/05/26 04:31:29;;;;;;;0.75;0.40;;;5.50;99.90;;;;;;5055008;28;20488;-64
2023/05/26 04:33:56;;;;;;;1.77;0.80;;;5.50;99.90;;;;;;5071264;28;20044;-64
2023/05/26 04:36:23;;;;;;;6.72;1.30;;;5.60;99.90;;;;;;5089432;28;20108;-64
2023/05/26 04:38:49;;;;;;;1.77;0.75;;;5.70;99.90;;;;;;5071852;28;20050;-64
2023/05/26 04:41:16;;;;;;;1.27;0.80;;;5.70;99.90;;;;;;5089641;28;20040;-64
2023/05/26 04:43:43;;;;;;;2.42;1.00;;;5.80;99.90;;;;;;5090083;28;20043;-64
2023/05/26 04:46:13;;;;;;;2.10;0.63;;;5.90;99.90;;;;;;5055291;28;20093;-64
2023/05/26 04:48:38;;;;;;;2.72;1.10;;;5.90;99.90;;;;;;5089025;28;20042;-64
2023/05/26 04:51:05;;;;;;;1.52;0.88;;;6.00;99.90;;;;;;5071716;28;20135;-64
2023/05/26 04:53:31;;;;;;;0.95;0.60;;;6.10;99.90;;;;;;5071821;28;20422;-64
2023/05/26 04:56:01;;;;;;;0.60;0.52;;;6.20;99.90;;;;;;5054538;28;20138;-64
2023/05/26 04:58:27;;;;;;;;;;;6.20;99.90;;;;;;5090376;28;20086;-63
2023/05/26 05:00:55;;;;;;;3.20;0.43;;;6.30;99.90;;;;;;5087934;28;19971;-64
2023/05/26 05:03:21;;;;;;;4.47;1.27;;;6.40;99.90;;;;;;5054988;28;20089;-63
2023/05/26 05:05:47;;;;;;;1.52;1.13;;;6.50;99.90;;;;;;5089904;28;20038;-63
2023/05/26 05:08:13;;;;;;;2.92;0.82;;;6.60;99.90;;;;;;5089309;28;20070;-63
2023/05/26 05:10:39;;;;;;;0.77;0.55;;;6.80;99.90;;;;;;5071926;28;20040;-63
2023/05/26 05:13:05;;;;;;;2.95;0.82;;;6.90;99.90;;;;;;5089800;28;20503;-63
2023/05/26 05:15:31;;;;;;;1.73;0.60;;;7.00;99.90;;;;;;5070787;28;20522;-63
2023/05/26 05:17:58;;;;;;;2.47;1.00;;;7.10;99.90;;;;;;5071366;28;20048;-63
2023/05/26 05:20:25;;;;;;;1.88;0.98;;;7.30;99.90;;;;;;5071653;28;20276;-63
2023/05/26 05:22:50;;;;;;;4.55;0.80;;;7.40;99.90;;;;;;5089202;28;20051;-63
2023/05/26 05:25:17;;;;;;;1.38;0.90;;;7.60;99.90;;;;;;5071477;28;20127;-63
2023/05/26 05:27:43;;;;;;;4.75;0.80;;;7.70;99.90;;;;;;5070787;28;20036;-64
2023/05/26 05:30:09;;;;;;;2.25;0.85;;;7.90;99.90;;;;;;5088394;28;20032;-63
2023/05/26 05:32:35;;;;;;;3.75;0.75;;;8.00;99.90;;;;;;5089532;28;20040;-64
2023/05/26 05:35:01;;;;;;;1.48;0.75;;;8.20;99.90;;;;;;5071216;28;20036;-64
2023/05/26 05:37:27;;;;;;;2.70;0.95;;;8.30;99.90;;;;;;5089004;28;20032;-64
2023/05/26 05:39:53;;;;;;;2.17;0.80;;;8.50;99.90;;;;;;5089616;28;20399;-64
2023/05/26 05:42:21;;;;;;;2.88;0.65;;;8.60;99.90;;;;;;5071258;28;20048;-64
2023/05/26 05:44:47;;;;;;;1.33;0.60;;;8.80;99.90;;;;;;5053798;28;20048;-64
2023/05/26 05:47:13;;;;;;;2.20;1.13;;;8.90;99.90;;;;;;5071103;28;20039;-64
2023/05/26 05:49:38;;;;;;;2.65;1.10;;;9.10;99.90;;;;;;5070577;28;20042;-65
2023/05/26 05:52:04;;;;;;;2.10;0.85;;;9.20;99.90;;;;;;5070979;28;20496;-64
2023/05/26 05:54:30;;;;;;;0.75;0.52;;;9.40;99.90;;;;;;5074140;28;20039;-64
2023/05/26 05:56:56;;;;;;;3.03;1.10;;;9.60;99.90;;;;;;5092123;28;20044;-65
2023/05/26 05:59:22;;;;;;;5.72;1.52;;;9.70;99.90;;;;;;5092950;28;20040;-64
2023/05/26 06:01:47;;;;;;;3.08;0.32;;;9.90;99.90;;;;;;5074799;28;20040;-64
2023/05/26 06:04:13;;;;;;;1.02;0.82;;;10.10;99.90;;;;;;5073679;28;20491;-65
2023/05/26 06:06:39;;;;;;;7.43;2.17;;;10.20;99.90;;;;;;5092775;28;20040;-64
2023/05/26 06:09:05;;;;;;;2.03;0.68;;;10.40;99.90;;;;;;5057980;28;20036;-64
2023/05/26 06:11:31;;;;;;;3.25;1.08;;;10.50;99.90;;;;;;5057199;28;20036;-65
2023/05/26 06:13:57;;;;;;;1.20;0.60;;;10.70;99.90;;;;;;5057693;28;20040;-66
2023/05/26 06:16:22;;;;;;;10.68;1.20;;;10.80;99.90;;;;;;5092617;28;20043;-65
2023/05/26 06:18:48;;;;;;;1.90;1.00;;;11.00;99.90;;;;;;5074095;28;20032;-65
2023/05/26 06:21:14;;;;;;;7.70;1.15;;;11.10;99.90;;;;;;5092236;28;20468;-65
2023/05/26 06:23:40;;;;;;;6.18;1.92;;;11.30;99.90;;;;;;5074062;28;20051;-65
2023/05/26 06:26:05;;;;;;;2.45;1.10;;;11.40;99.90;;;;;;5073515;28;20046;-65
2023/05/26 06:28:31;;;;;;;7.40;1.80;;;11.50;99.90;;;;;;5057469;28;20043;-65
2023/05/26 06:30:57;;;;;;;1.90;0.77;;;11.70;99.90;;;;;;5057455;28;20036;-67
2023/05/26 06:33:23;;;;;;;2.05;0.85;;;11.90;99.90;;;;;;5072429;28;20046;-65
2023/05/26 06:35:48;;;;;;;5.57;1.05;;;12.10;99.90;;;;;;5091470;28;20044;-66
2023/05/26 06:38:14;;;;;;;6.15;1.52;;;12.30;99.90;;;;;;5073013;28;20048;-67
2023/05/26 06:40:40;;;;;;;1.33;0.80;;;12.50;99.90;;;;;;5072274;28;20036;-67
2023/05/26 06:43:06;;;;;;;3.90;1.00;;;12.80;99.90;;;;;;5085659;28;20066;-66
2023/05/26 06:45:31;;;;;;;2.47;1.40;;;13.00;99.90;;;;;;5081486;28;20381;-68
2023/05/26 06:47:57;;;;;;;1.35;0.47;;;13.20;99.90;;;;;;5110968;28;20035;-67
2023/05/26 06:50:23;;;;;;;8.80;1.75;;;13.40;99.90;;;;;;5092665;28;20059;-67
2023/05/26 06:52:49;;;;;;;5.55;0.50;;;13.60;99.90;;;;;;5110437;28;20043;-67
2023/05/26 06:55:16;;;;;;;5.60;1.40;;;13.70;99.90;;;;;;5111326;28;20097;-66
2023/05/26 06:57:42;;;;;;;7.72;1.52;;;13.90;99.90;;;;;;5111005;28;20508;-66
2023/05/26 07:00:09;;;;;;;5.03;0.90;;;14.10;99.90;;;;;;5092311;28;20043;-68
2023/05/26 07:02:35;;;;;;;6.55;1.25;;;14.30;99.90;;;;;;5092391;28;20046;-66
2023/05/26 07:05:01;;;;;;;2.97;0.60;;;14.50;99.90;;;;;;5109760;28;20035;-67
2023/05/26 07:07:27;;;;;;;5.45;1.10;;;14.70;99.90;;;;;;5091578;28;20111;-66
2023/05/26 07:09:53;;;;;;;1.00;0.82;;;14.80;99.90;;;;;;5092476;28;20127;-67
2023/05/26 07:12:19;;;;;;;9.48;1.23;;;14.90;99.90;;;;;;5092453;28;20031;-66
2023/05/26 07:14:46;;;;;;;2.90;0.77;;;14.90;99.90;;;;;;5110300;28;20044;-65
2023/05/26 07:17:12;;;;;;;1.23;0.60;;;15.00;99.90;;;;;;5092383;28;20044;-68
2023/05/26 07:19:38;;;;;;;2.65;0.80;;;15.00;99.90;;;;;;5092260;28;20046;-68
2023/05/26 07:22:04;;;;;;;8.05;0.98;;;14.90;99.90;;;;;;5091597;28;20088;-68
2023/05/26 07:24:30;;;;;;;1.92;0.98;;;15.00;99.90;;;;;;5110677;28;20055;-67
2023/05/26 07:26:56;;;;;;;1.60;0.68;;;15.20;99.90;;;;;;5092165;28;20043;-68
2023/05/26 07:29:21;;;;;;;2.10;0.73;;;15.40;99.90;;;;;;5074735;28;20040;-67
2023/05/26 07:31:47;;;;;;;6.07;1.15;;;15.50;99.90;;;;;;5092866;28;20128;-68
2023/05/26 07:34:13;;;;;;;4.70;1.15;;;15.60;99.90;;;;;;5092917;28;20036;-67
2023/05/26 07:36:39;;;;;;;1.23;0.70;;;15.80;99.90;;;;;;5092467;28;20047;-66
2023/05/26 07:39:05;;;;;;;3.65;0.98;;;15.90;99.90;;;;;;5093204;28;20043;-66
2023/05/26 07:41:31;;;;;;;1.55;0.90;;;16.00;99.90;;;;;;5111127;28;20040;-67
2023/05/26 07:43:56;;;;;;;3.00;0.80;;;16.10;99.90;;;;;;5091586;28;20042;-66
2023/05/26 07:46:22;;;;;;;2.75;0.73;;;16.20;99.90;;;;;;5092846;28;20121;-66
2023/05/26 07:48:48;;;;;;;15.68;1.05;;;16.30;99.90;;;;;;5092276;28;20043;-67
2023/05/26 07:51:15;;;;;;;4.75;1.23;;;16.40;99.90;;;;;;5092562;28;20060;-67
2023/05/26 07:53:41;;;;;;;3.50;1.15;;;16.50;99.90;;;;;;5110799;28;20040;-67
2023/05/26 07:56:06;;;;;;;5.95;1.40;;;16.60;99.90;;;;;;5091029;28;20088;-67
2023/05/26 07:58:32;;;;;;;1.42;0.45;;;16.80;99.90;;;;;;5092641;28;20039;-67
2023/05/26 08:00:58;;;;;;;3.00;0.80;;;17.00;99.90;;;;;;5110565;28;20036;-68
2023/05/26 08:03:24;;;;;;;1.50;0.63;;;17.20;99.90;;;;;;5091535;28;20194;-66
2023/05/26 08:05:50;;;;;;;1.38;0.55;;;17.40;99.90;;;;;;5092177;28;20043;-68
2023/05/26 08:08:16;;;;;;;1.05;0.50;;;17.60;99.90;;;;;;5092674;28;20093;-68
2023/05/26 08:10:41;;;;;;;8.98;0.75;;;17.70;99.90;;;;;;5091913;28;20031;-67
2023/05/26 08:13:07;;;;;;;0.50;0.32;;;17.50;99.90;;;;;;5092606;28;20043;-67
2023/05/26 08:15:33;;;;;;;1.67;0.73;;;17.60;99.90;;;;;;5092160;28;20625;-67
2023/05/26 08:17:58;;;;;;;1.70;0.77;;;17.60;99.90;;;;;;5109657;28;20040;-67
2023/05/26 08:20:24;;;;;;;5.13;0.90;;;17.70;99.90;;;;;;5092134;28;20126;-67
2023/05/26 08:22:50;;;;;;;2.70;0.80;;;17.80;99.90;;;;;;5092434;28;20039;-67
2023/05/26 08:25:16;;;;;;;3.10;0.50;;;18.00;99.90;;;;;;5091666;28;20040;-66
2023/05/26 08:27:42;;;;;;;2.00;0.88;;;18.30;99.90;;;;;;5092641;28;20042;-66
2023/05/26 08:30:08;;;;;;;1.90;0.50;;;18.60;99.90;;;;;;5075567;28;20397;-67
2023/05/26 08:32:34;;;;;;;1.13;0.47;;;18.80;99.90;;;;;;5109884;28;20040;-68
2023/05/26 08:35:00;;;;;;;3.85;1.17;;;18.90;99.90;;;;;;5092091;28;20100;-68
2023/05/26 08:37:27;;;;;;;1.83;0.75;;;19.00;99.90;;;;;;5092453;28;20032;-67
2023/05/26 08:39:57;;;;;;;4.45;0.90;;;18.90;99.90;;;;;;5091505;28;20044;-67
2023/05/26 08:42:28;;;;;;;2.03;0.73;;;19.00;99.90;;;;;;5092241;28;20050;-66
2023/05/26 08:44:54;;;;;;;3.95;1.02;;;19.00;99.90;;;;;;5091361;28;20040;-67
2023/05/26 08:47:20;;;;;;;3.42;0.98;;;18.90;99.90;;;;;;5110265;28;20040;-69
2023/05/26 08:49:51;;;;;;;4.95;0.73;;;18.90;99.90;;;;;;5075101;28;20062;-67
2023/05/26 08:52:18;;;;;;;1.92;0.75;;;18.90;99.90;;;;;;5091329;28;20491;-67
2023/05/26 08:54:45;;;;;;;3.80;1.00;;;18.90;99.90;;;;;;5092071;28;20047;-66
2023/05/26 08:57:12;;;;;;;2.75;0.95;;;19.10;99.90;;;;;;5075247;28;20126;-67
2023/05/26 08:59:39;;;;;;;1.10;0.43;;;19.20;99.90;;;;;;5091552;28;20161;-66
2023/05/26 09:02:05;;;;;;;4.07;0.90;;;19.30;99.90;;;;;;5091836;28;20047;-66
2023/05/26 09:04:31;;;;;;;3.45;0.85;;;19.50;99.90;;;;;;5109956;28;20044;-67
2023/05/26 09:06:58;;;;;;;3.85;0.80;;;19.50;99.90;;;;;;5109815;28;20081;-66
2023/05/26 09:09:24;;;;;;;2.00;0.50;;;19.70;99.90;;;;;;5091998;28;20088;-66
2023/05/26 09:11:51;;;;;;;2.55;1.02;;;19.80;99.90;;;;;;5075023;28;20043;-67
2023/05/26 09:14:20;;;;;;;1.02;0.50;;;19.70;99.90;;;;;;5091372;28;20376;-65
2023/05/26 09:16:46;;;;;;;1.17;0.67;;;19.70;99.90;;;;;;5091954;28;20040;-66
2023/05/26 09:19:16;;;;;;;3.35;1.10;;;19.90;99.90;;;;;;5109995;28;20273;-67
2023/05/26 09:21:46;;;;;;;2.03;0.60;;;20.00;98.90;;;;;;5109351;28;20036;-67
2023/05/26 09:24:15;;;;;;;2.08;0.98;;;20.10;99.40;;;;;;5091577;28;20047;-67
2023/05/26 09:26:43;;;;;;;3.10;0.60;;;20.20;99.70;;;;;;5074696;28;20120;-67
2023/05/26 09:29:09;;;;;;;1.38;0.77;;;20.30;98.60;;;;;;5093975;28;20518;-67
2023/05/26 09:31:38;;;;;;;5.68;0.57;;;20.40;98.80;;;;;;5078338;28;20039;-67
2023/05/26 09:34:04;;;;;;;;;;;20.50;98.70;;;;;;5095214;28;20061;-67
2023/05/26 09:36:36;;;;;;;4.63;0.52;;;20.60;95.90;;;;;;5078559;28;19916;-65
2023/05/26 09:39:12;;;;;;;0.65;0.28;;;20.60;96.80;;;;;;5095612;28;20496;-67
2023/05/26 09:41:45;;;;;;;2.20;0.98;;;20.60;97.10;;;;;;5094957;28;20043;-66
2023/05/26 09:44:19;;;;;;;2.75;0.57;;;20.70;96.90;;;;;;5113642;28;20081;-66
2023/05/26 09:46:46;;;;;;;2.35;0.40;;;20.80;95.70;;;;;;5113350;28;20487;-67
2023/05/26 09:49:13;;;;;;;3.17;1.15;;;20.70;96.80;;;;;;5094423;28;20047;-68
2023/05/26 09:51:40;;;;;;;3.75;0.68;;;20.80;97.20;;;;;;5113209;28;20044;-67
2023/05/26 09:54:09;;;;;;;2.88;1.35;;;20.90;95.70;;;;;;5078210;28;20372;-64
2023/05/26 09:56:36;;;;;;;2.83;0.85;;;20.90;93.00;;;;;;5113037;28;20460;-65
2023/05/26 09:59:06;;;;;;;2.88;0.90;;;20.90;95.50;;;;;;5078264;28;20039;-67
2023/05/26 10:01:39;;;;;;;2.75;0.75;;;20.90;95.70;;;;;;5112917;28;20050;-67
2023/05/26 10:04:07;;;;;;;1.45;0.82;;;20.90;95.80;;;;;;5094892;28;20101;-65
2023/05/26 10:06:39;;;;;;;0.80;0.25;;;20.90;93.60;;;;;;5113456;28;20114;-67
2023/05/26 10:09:07;;;;;;;5.70;1.05;;;20.80;93.80;;;;;;5112669;28;20036;-67
2023/05/26 10:11:39;;;;;;;1.73;0.75;;;20.70;94.70;;;;;;5113042;28;20093;-67
2023/05/26 10:14:05;;;;;;;3.97;1.13;;;20.80;94.70;;;;;;5113034;28;20104;-67
2023/05/26 10:16:32;;;;;;;2.05;0.90;;;21.00;94.90;;;;;;5094300;28;20104;-67
2023/05/26 10:18:58;;;;;;;1.08;0.47;;;21.00;94.40;;;;;;5077682;28;20046;-67
2023/05/26 10:21:31;;;;;;;1.15;0.75;;;21.10;94.20;;;;;;5094592;28;20108;-66
2023/05/26 10:24:28;;;;;;;3.78;1.00;;;21.20;94.00;;;;;;5112268;28;20075;-66
2023/05/26 10:27:19;;;;;;;4.53;0.80;;;21.10;93.00;;;;;;5093287;28;20043;-66
2023/05/26 10:30:10;;;;;;;6.03;0.60;;;21.20;92.80;;;;;;5093614;28;20043;-66
2023/05/26 10:32:51;;;;;;;1.55;0.60;;;21.10;91.60;;;;;;5094376;28;20046;-66
2023/05/26 10:35:33;;;;;;;1.40;0.77;;;21.10;93.50;;;;;;5077777;28;20050;-66
2023/05/26 10:38:02;;;;;;;1.58;0.30;;;21.10;92.50;;;;;;5093625;28;20039;-65
2023/05/26 10:40:37;;;;;;;4.22;0.90;;;21.10;92.60;;;;;;5111962;28;20039;-65
2023/05/26 10:43:11;;;;;;;3.05;0.73;;;21.10;91.90;;;;;;5112552;28;20047;-66
2023/05/26 10:45:49;;;;;;;3.05;1.23;;;21.00;92.60;;;;;;5111987;28;20032;-64
2023/05/26 10:48:17;;;;;;;4.65;1.30;;;21.10;93.20;;;;;;5094128;28;20479;-65
2023/05/26 10:51:14;;;;;;;2.33;0.90;;;21.40;93.50;;;;;;5093265;28;20087;-64
2023/05/26 10:53:42;;;;;;;1.33;0.30;;;21.60;91.80;;;;;;5110924;28;20043;-65
2023/05/26 10:56:11;;;;;;;3.05;0.82;;;22.00;93.10;;;;;;5112598;28;20124;-66
2023/05/26 10:58:40;;;;;;;0.98;0.45;;;22.20;92.90;;;;;;5076375;28;20035;-64
2023/05/26 11:01:09;;;;;;;1.15;0.40;;;22.30;92.70;;;;;;5093992;28;20092;-65
2023/05/26 11:03:37;;;;;;;2.17;0.95;;;22.20;92.00;;;;;;5093824;28;20039;-65
2023/05/26 11:06:04;;;;;;;1.75;0.73;;;21.90;90.70;;;;;;5093055;28;20077;-65
2023/05/26 11:08:52;;;;;;;5.53;1.73;;;21.70;90.60;;;;;;5089647;28;20496;-66
2023/05/26 11:11:33;;;;;;;1.10;0.68;;;21.60;91.30;;;;;;5073508;28;20122;-66
2023/05/26 11:14:06;;;;;;;1.55;0.25;;;21.60;91.50;;;;;;5073485;28;20044;-64
2023/05/26 11:16:36;;;;;;;3.17;0.60;;;21.80;90.80;;;;;;5091537;28;20040;-66
2023/05/26 11:19:07;;;;;;;3.95;0.80;;;21.70;91.00;;;;;;5090858;28;20426;-66
2023/05/26 11:21:34;;;;;;;1.13;0.60;;;21.70;90.70;;;;;;5073074;28;20048;-65
2023/05/26 11:24:05;;;;;;;1.75;0.68;;;21.70;90.40;;;;;;5072967;28;20504;-66
2023/05/26 11:26:32;;;;;;;2.45;0.70;;;21.70;90.90;;;;;;5072690;28;20040;-66
2023/05/26 11:29:05;;;;;;;1.90;0.57;;;21.70;90.90;;;;;;5072861;28;20036;-65
2023/05/26 11:31:31;;;;;;;4.32;0.40;;;21.80;91.00;;;;;;5091268;28;20036;-65
2023/05/26 11:34:00;;;;;;;2.30;0.40;;;21.90;91.20;;;;;;5072603;28;20082;-66
2023/05/26 11:36:26;;;;;;;2.28;0.57;;;21.90;91.00;;;;;;5072776;28;20040;-64
2023/05/26 11:38:57;;;;;;;0.82;0.55;;;22.00;90.50;;;;;;5072700;28;20044;-65
2023/05/26 11:41:28;;;;;;;6.65;1.00;;;21.90;90.30;;;;;;5072121;28;20048;-66
2023/05/26 11:43:55;;;;;;;5.65;0.60;;;21.80;90.20;;;;;;5079826;28;20040;-66
2023/05/26 11:46:21;;;;;;;2.03;1.02;;;21.70;90.60;;;;;;5089290;28;20039;-66
2023/05/26 11:48:48;;;;;;;3.65;0.85;;;21.80;90.80;;;;;;5089364;28;20043;-66
2023/05/26 11:51:19;;;;;;;0.88;0.40;;;21.90;90.50;;;;;;5088792;28;20055;-65
2023/05/26 11:53:51;;;;;;;4.72;0.85;;;21.90;89.40;;;;;;5088721;28;20130;-66
2023/05/26 11:56:17;;;;;;;5.82;0.70;;;22.00;90.50;;;;;;5089519;28;20044;-66
2023/05/26 11:58:45;;;;;;;2.15;0.82;;;22.00;89.60;;;;;;5089310;28;20125;-64
2023/05/26 12:01:11;;;;;;;3.63;0.90;;;21.90;90.00;;;;;;5088633;28;20036;-66
2023/05/26 12:03:40;;;;;;;3.58;0.88;;;21.70;90.20;;;;;;5090861;28;20352;-67
2023/05/26 12:06:20;;;;;;;2.38;0.70;;;21.70;89.70;;;;;;5090596;28;20038;-66
2023/05/26 12:08:49;;;;;;;2.13;1.08;;;21.70;87.30;;;;;;5088617;28;20051;-65
2023/05/26 12:11:29;;;;;;;0.55;0.22;;;21.60;89.90;;;;;;5089201;28;20748;-64
2023/05/26 12:14:00;;;;;;;2.80;1.10;;;21.50;89.60;;;;;;5089459;28;20044;-66
2023/05/26 12:16:47;;;;;;;3.88;0.50;;;21.40;88.80;;;;;;5089955;28;20047;-66
2023/05/26 12:19:23;;;;;;;2.53;0.98;;;21.30;87.80;;;;;;5089319;28;20493;-67
2023/05/26 12:21:59;;;;;;;6.10;1.17;;;21.20;88.40;;;;;;5089505;28;20085;-67
2023/05/26 12:24:33;;;;;;;2.50;0.70;;;21.00;87.40;;;;;;5072247;28;20044;-66
2023/05/26 12:27:12;;;;;;;1.27;0.75;;;21.00;89.20;;;;;;5090466;28;20032;-66
2023/05/26 12:29:43;;;;;;;5.00;0.95;;;20.90;87.40;;;;;;5088464;28;20035;-66
2023/05/26 12:32:13;;;;;;;2.15;1.08;;;20.80;87.60;;;;;;5090430;28;20064;-64
2023/05/26 12:34:39;;;;;;;4.57;1.05;;;20.60;87.30;;;;;;5090137;28;20040;-64
2023/05/26 12:37:05;;;;;;;4.05;0.95;;;20.60;87.10;;;;;;5088224;28;20112;-65
2023/05/26 12:39:31;;;;;;;8.73;1.88;;;20.50;88.10;;;;;;5089987;28;20040;-67
2023/05/26 12:41:57;;;;;;;2.90;0.90;;;20.40;86.70;;;;;;5088564;28;20499;-65
2023/05/26 12:44:23;;;;;;;5.15;1.13;;;20.50;88.00;;;;;;5089429;28;20119;-66
2023/05/26 12:46:50;;;;;;;2.47;0.45;;;20.50;88.70;;;;;;5071605;28;20097;-67
2023/05/26 12:49:16;;;;;;;5.55;1.42;;;20.60;89.50;;;;;;5089352;28;20046;-64
2023/05/26 12:51:42;;;;;;;4.25;0.70;;;20.70;89.00;;;;;;5091454;28;20124;-66
2023/05/26 12:54:09;;;;;;;3.60;1.00;;;20.80;87.80;;;;;;5091910;28;20039;-64
2023/05/26 12:56:36;;;;;;;4.97;0.63;;;20.60;88.00;;;;;;5091400;28;20040;-65